sensor_id;sensor_type;location;lat;lon;timestamp;pressure;altitude;pressure_sealevel;temperature;humidity
13767;BME280;47980;48.794;9.176;2023-11-21T00:00:03;97658.00;;;9.83;100.00
13767;BME280;47980;48.794;9.176;2023-11-21T00:02:40;97654.44;;;9.91;100.00
13767;BME280;47980;48.794;9.176;2023-11-21T00:05:13;97661.75;;;9.94;100.00
13767;BME280;47980;48.794;9.176;2023-11-21T00:07:46;97654.69;;;9.98;100.00
13767;BME280;47980;48.794;9.176;2023-11-21T00:10:18;97659.78;;;10.03;100.00
13767;BME280;47980;48.794;9.176;2023-11-21T00:12:49;97639.13;;;9.97;100.00
13767;BME280;47980;48.794;9.176;2023-11-21T00:15:21;97648.06;;;9.92;100.00
13767;BME280;47980;48.794;9.176;2023-11-21T00:17:56;97644.50;;;9.76;100.00
13767;BME280;47980;48.794;9.176;2023-11-21T00:20:28;97634.16;;;9.71;100.00
13767;BME280;47980;48.794;9.176;2023-11-21T00:23:00;97637.22;;;9.73;100.00
13767;BME280;47980;48.794;9.176;2023-11-21T00:25:32;97641.09;;;9.63;100.00
13767;BME280;47980;48.794;9.176;2023-11-21T00:28:04;97635.16;;;9.78;100.00
13767;BME280;47980;48.794;9.176;2023-11-21T00:30:36;97632.16;;;9.80;100.00
13767;BME280;47980;48.794;9.176;2023-11-21T00:33:07;97639.66;;;9.78;100.00
13767;BME280;47980;48.794;9.176;2023-11-21T00:35:39;97633.94;;;9.88;100.00
13767;BME280;47980;48.794;9.176;2023-11-21T00:38:11;97640.66;;;9.85;100.00
13767;BME280;47980;48.794;9.176;2023-11-21T00:40:43;97642.31;;;9.90;100.00
13767;BME280;47980;48.794;9.176;2023-11-21T00:43:15;97638.88;;;10.02;100.00
13767;BME280;47980;48.794;9.176;2023-11-21T00:45:46;97636.38;;;9.93;100.00
13767;BME280;47980;48.794;9.176;2023-11-21T00:48:19;97644.19;;;9.89;100.00
13767;BME280;47980;48.794;9.176;2023-11-21T00:50:50;97634.50;;;9.81;100.00
13767;BME280;47980;48.794;9.176;2023-11-21T00:53:23;97648.50;;;9.94;100.00
13767;BME280;47980;48.794;9.176;2023-11-21T00:55:55;97642.09;;;9.83;100.00
13767;BME280;47980;48.794;9.176;2023-11-21T00:58:28;97639.66;;;9.78;100.00
13767;BME280;47980;48.794;9.176;2023-11-21T01:01:00;97637.44;;;9.80;100.00
13767;BME280;47980;48.794;9.176;2023-11-21T01:03:32;97635.59;;;9.80;100.00
13767;BME280;47980;48.794;9.176;2023-11-21T01:06:04;97639.22;;;9.76;100.00
13767;BME280;47980;48.794;9.176;2023-11-21T01:08:39;97637.13;;;9.81;100.00
13767;BME280;47980;48.794;9.176;2023-11-21T01:11:10;97641.53;;;9.89;100.00
13767;BME280;47980;48.794;9.176;2023-11-21T01:13:42;97637.56;;;9.83;100.00
13767;BME280;47980;48.794;9.176;2023-11-21T01:16:15;97637.44;;;9.80;100.00
13767;BME280;47980;48.794;9.176;2023-11-21T01:18:46;97645.41;;;9.80;100.00
13767;BME280;47980;48.794;9.176;2023-11-21T01:21:18;97643.75;;;9.87;100.00
13767;BME280;47980;48.794;9.176;2023-11-21T01:23:50;97641.53;;;9.89;100.00
13767;BME280;47980;48.794;9.176;2023-11-21T01:26:21;97636.03;;;9.95;100.00
13767;BME280;47980;48.794;9.176;2023-11-21T01:28:52;97635.81;;;10.00;100.00
13767;BME280;47980;48.794;9.176;2023-11-21T01:31:25;97636.47;;;9.97;100.00
13767;BME280;47980;48.794;9.176;2023-11-21T01:33:59;97638.34;;;9.96;100.00
13767;BME280;47980;48.794;9.176;2023-11-21T01:36:31;97635.25;;;10.06;100.00
13767;BME280;47980;48.794;9.176;2023-11-21T01:39:05;97635.38;;;10.10;100.00
13767;BME280;47980;48.794;9.176;2023-11-21T01:41:38;97634.50;;;10.06;100.00
13767;BME280;47980;48.794;9.176;2023-11-21T01:44:10;97636.81;;;10.07;100.00
13767;BME280;47980;48.794;9.176;2023-11-21T01:46:43;97634.28;;;9.99;100.00
13767;BME280;47980;48.794;9.176;2023-11-21T01:49:15;97637.81;;;10.03;100.00
13767;BME280;47980;48.794;9.176;2023-11-21T01:51:48;97634.91;;;10.08;100.00
13767;BME280;47980;48.794;9.176;2023-11-21T01:54:22;97623.22;;;10.09;100.00
13767;BME280;47980;48.794;9.176;2023-11-21T01:56:53;97633.81;;;10.09;100.00
13767;BME280;47980;48.794;9.176;2023-11-21T01:59:25;97632.84;;;10.13;100.00
13767;BME280;47980;48.794;9.176;2023-11-21T02:01:58;97636.34;;;10.05;100.00
13767;BME280;47980;48.794;9.176;2023-11-21T02:04:29;97629.06;;;10.15;100.00
13767;BME280;47980;48.794;9.176;2023-11-21T02:07:02;97637.38;;;10.13;100.00
13767;BME280;47980;48.794;9.176;2023-11-21T02:09:36;97631.16;;;10.09;100.00
13767;BME280;47980;48.794;9.176;2023-11-21T02:12:08;97635.47;;;10.13;100.00
13767;BME280;47980;48.794;9.176;2023-11-21T02:14:40;97631.28;;;10.00;100.00
13767;BME280;47980;48.794;9.176;2023-11-21T02:17:12;97631.41;;;9.92;100.00
13767;BME280;47980;48.794;9.176;2023-11-21T02:19:44;97628.53;;;9.84;100.00
13767;BME280;47980;48.794;9.176;2023-11-21T02:22:18;97629.41;;;10.01;100.00
13767;BME280;47980;48.794;9.176;2023-11-21T02:24:51;97624.34;;;9.96;100.00
13767;BME280;47980;48.794;9.176;2023-11-21T02:27:23;97624.75;;;9.98;100.00
13767;BME280;47980;48.794;9.176;2023-11-21T02:29:57;97621.44;;;10.01;100.00
13767;BME280;47980;48.794;9.176;2023-11-21T02:32:30;97625.31;;;10.03;100.00
13767;BME280;47980;48.794;9.176;2023-11-21T02:35:02;97626.97;;;10.08;100.00
13767;BME280;47980;48.794;9.176;2023-11-21T02:37:38;97626.88;;;10.04;100.00
13767;BME280;47980;48.794;9.176;2023-11-21T02:40:12;97618.81;;;10.13;100.00
13767;BME280;47980;48.794;9.176;2023-11-21T02:42:47;97620.47;;;10.18;100.00
13767;BME280;47980;48.794;9.176;2023-11-21T02:45:21;97620.09;;;10.19;100.00
13767;BME280;47980;48.794;9.176;2023-11-21T02:47:52;97615.91;;;10.18;100.00
13767;BME280;47980;48.794;9.176;2023-11-21T02:50:27;97618.81;;;10.13;100.00
13767;BME280;47980;48.794;9.176;2023-11-21T02:52:58;97611.31;;;10.03;100.00
13767;BME280;47980;48.794;9.176;2023-11-21T02:55:31;97614.84;;;10.07;100.00
13767;BME280;47980;48.794;9.176;2023-11-21T02:58:05;97615.16;;;10.05;100.00
13767;BME280;47980;48.794;9.176;2023-11-21T03:00:37;97611.31;;;10.03;100.00
13767;BME280;47980;48.794;9.176;2023-11-21T03:03:10;97611.63;;;10.01;100.00
13767;BME280;47980;48.794;9.176;2023-11-21T03:05:41;97611.84;;;9.84;100.00
13767;BME280;47980;48.794;9.176;2023-11-21T03:08:13;97614.06;;;9.94;100.00
13767;BME280;47980;48.794;9.176;2023-11-21T03:10:46;97609.31;;;9.87;100.00
13767;BME280;47980;48.794;9.176;2023-11-21T03:13:17;97613.19;;;9.90;100.00
13767;BME280;47980;48.794;9.176;2023-11-21T03:15:49;97611.84;;;9.84;100.00
13767;BME280;47980;48.794;9.176;2023-11-21T03:18:20;97620.03;;;9.67;100.00
13767;BME280;47980;48.794;9.176;2023-11-21T03:20:52;97607.88;;;9.78;100.00
13767;BME280;47980;48.794;9.176;2023-11-21T03:23:24;97616.16;;;9.88;100.00
13767;BME280;47980;48.794;9.176;2023-11-21T03:25:57;97618.38;;;9.86;100.00
13767;BME280;47980;48.794;9.176;2023-11-21T03:28:28;97617.13;;;9.84;100.00
13767;BME280;47980;48.794;9.176;2023-11-21T03:31:00;97622.13;;;9.85;100.00
13767;BME280;47980;48.794;9.176;2023-11-21T03:33:31;97631.50;;;9.95;100.00
13767;BME280;47980;48.794;9.176;2023-11-21T03:36:03;97623.13;;;9.93;100.00
13767;BME280;47980;48.794;9.176;2023-11-21T03:38:35;97623.88;;;9.94;100.00
13767;BME280;47980;48.794;9.176;2023-11-21T03:41:09;97624.44;;;9.99;100.00
13767;BME280;47980;48.794;9.176;2023-11-21T03:43:41;97623.22;;;9.97;100.00
13767;BME280;47980;48.794;9.176;2023-11-21T03:46:12;97621.69;;;9.96;100.00
13767;BME280;47980;48.794;9.176;2023-11-21T03:48:44;97629.41;;;10.01;100.00
13767;BME280;47980;48.794;9.176;2023-11-21T03:51:15;97631.94;;;9.97;100.00
13767;BME280;47980;48.794;9.176;2023-11-21T03:53:47;97630.94;;;10.14;100.00
13767;BME280;47980;48.794;9.176;2023-11-21T03:56:20;97633.16;;;10.00;100.00
13767;BME280;47980;48.794;9.176;2023-11-21T03:58:51;97637.25;;;9.97;100.00
13767;BME280;47980;48.794;9.176;2023-11-21T04:01:24;97632.59;;;9.94;100.00
13767;BME280;47980;48.794;9.176;2023-11-21T04:03:56;97633.81;;;9.97;100.00
13767;BME280;47980;48.794;9.176;2023-11-21T04:06:27;97633.38;;;9.95;100.00
13767;BME280;47980;48.794;9.176;2023-11-21T04:08:59;97631.72;;;9.90;100.00
13767;BME280;47980;48.794;9.176;2023-11-21T04:11:32;97630.06;;;9.98;100.00
13767;BME280;47980;48.794;9.176;2023-11-21T04:14:03;97637.25;;;9.97;100.00
13767;BME280;47980;48.794;9.176;2023-11-21T04:16:35;97635.81;;;10.00;100.00
13767;BME280;47980;48.794;9.176;2023-11-21T04:19:06;97638.91;;;9.89;100.00
13767;BME280;47980;48.794;9.176;2023-11-21T04:21:39;97640.44;;;10.03;100.00
13767;BME280;47980;48.794;9.176;2023-11-21T04:24:11;97641.44;;;9.98;100.00
13767;BME280;47980;48.794;9.176;2023-11-21T04:26:44;97641.88;;;10.00;100.00
13767;BME280;47980;48.794;9.176;2023-11-21T04:29:16;97634.47;;;9.94;100.00
13767;BME280;47980;48.794;9.176;2023-11-21T04:31:47;97638.34;;;9.96;100.00
13767;BME280;47980;48.794;9.176;2023-11-21T04:34:19;97632.50;;;9.91;100.00
13767;BME280;47980;48.794;9.176;2023-11-21T04:36:50;97639.56;;;9.86;100.00
13767;BME280;47980;48.794;9.176;2023-11-21T04:39:22;97640.97;;;9.72;100.00
13767;BME280;47980;48.794;9.176;2023-11-21T04:41:55;97644.94;;;9.65;100.00
13767;BME280;47980;48.794;9.176;2023-11-21T04:44:26;97646.81;;;9.53;100.00
13767;BME280;47980;48.794;9.176;2023-11-21T04:46:58;97646.34;;;9.51;100.00
13767;BME280;47980;48.794;9.176;2023-11-21T04:49:29;97650.88;;;9.50;100.00
13767;BME280;47980;48.794;9.176;2023-11-21T04:52:00;97651.88;;;9.46;100.00
13767;BME280;47980;48.794;9.176;2023-11-21T04:54:33;97644.47;;;9.51;100.00
13767;BME280;47980;48.794;9.176;2023-11-21T04:57:07;97651.88;;;9.46;100.00
13767;BME280;47980;48.794;9.176;2023-11-21T04:59:38;97653.50;;;9.38;100.00
13767;BME280;47980;48.794;9.176;2023-11-21T05:02:10;97654.16;;;9.35;100.00
13767;BME280;47980;48.794;9.176;2023-11-21T05:04:42;97651.63;;;9.38;100.00
13767;BME280;47980;48.794;9.176;2023-11-21T05:07:14;97662.88;;;9.35;100.00
13767;BME280;47980;48.794;9.176;2023-11-21T05:09:46;97655.47;;;9.29;100.00
13767;BME280;47980;48.794;9.176;2023-11-21T05:12:19;97658.28;;;9.45;100.00
13767;BME280;47980;48.794;9.176;2023-11-21T05:14:51;97660.69;;;9.37;100.00
13767;BME280;47980;48.794;9.176;2023-11-21T05:17:22;97668.41;;;9.55;100.00
13767;BME280;47980;48.794;9.176;2023-11-21T05:19:54;97665.00;;;9.54;100.00
13767;BME280;47980;48.794;9.176;2023-11-21T05:22:25;97668.53;;;9.58;100.00
13767;BME280;47980;48.794;9.176;2023-11-21T05:24:58;97669.09;;;9.52;100.00
13767;BME280;47980;48.794;9.176;2023-11-21T05:27:30;97673.72;;;9.55;100.00
13767;BME280;47980;48.794;9.176;2023-11-21T05:30:03;97677.94;;;9.56;100.00
13767;BME280;47980;48.794;9.176;2023-11-21T05:32:35;97677.34;;;9.50;100.00
13767;BME280;47980;48.794;9.176;2023-11-21T05:35:07;97685.41;;;9.42;100.00
13767;BME280;47980;48.794;9.176;2023-11-21T05:37:42;97686.94;;;9.43;100.00
13767;BME280;47980;48.794;9.176;2023-11-21T05:40:14;97687.53;;;9.60;100.00
13767;BME280;47980;48.794;9.176;2023-11-21T05:42:47;97688.00;;;9.62;100.00
13767;BME280;47980;48.794;9.176;2023-11-21T05:45:18;97687.06;;;9.58;100.00
13767;BME280;47980;48.794;9.176;2023-11-21T05:47:51;97693.84;;;9.68;100.00
13767;BME280;47980;48.794;9.176;2023-11-21T05:50:22;97694.59;;;9.56;100.00
13767;BME280;47980;48.794;9.176;2023-11-21T05:52:54;97693.81;;;9.56;100.00
13767;BME280;47980;48.794;9.176;2023-11-21T05:55:25;97695.47;;;9.60;100.00
13767;BME280;47980;48.794;9.176;2023-11-21T05:57:58;97699.13;;;9.68;100.00
13767;BME280;47980;48.794;9.176;2023-11-21T06:00:30;97699.47;;;9.67;100.00
13767;BME280;47980;48.794;9.176;2023-11-21T06:03:02;97695.25;;;9.65;100.00
13767;BME280;47980;48.794;9.176;2023-11-21T06:05:36;97701.34;;;9.66;100.00
13767;BME280;47980;48.794;9.176;2023-11-21T06:08:08;97700.56;;;9.65;100.00
13767;BME280;47980;48.794;9.176;2023-11-21T06:10:40;97698.91;;;9.61;100.00
13767;BME280;47980;48.794;9.176;2023-11-21T06:13:13;97707.81;;;9.56;100.00
13767;BME280;47980;48.794;9.176;2023-11-21T06:15:45;97707.59;;;9.49;100.00
13767;BME280;47980;48.794;9.176;2023-11-21T06:18:16;97717.44;;;9.61;100.00
13767;BME280;47980;48.794;9.176;2023-11-21T06:20:49;97723.50;;;9.61;100.00
13767;BME280;47980;48.794;9.176;2023-11-21T06:23:22;97725.84;;;9.63;100.00
13767;BME280;47980;48.794;9.176;2023-11-21T06:25:54;97717.13;;;9.75;100.00
13767;BME280;47980;48.794;9.176;2023-11-21T06:28:26;97728.19;;;9.77;100.00
13767;BME280;47980;48.794;9.176;2023-11-21T06:30:58;97727.63;;;9.83;100.00
13767;BME280;47980;48.794;9.176;2023-11-21T06:33:35;97734.28;;;9.89;100.00
13767;BME280;47980;48.794;9.176;2023-11-21T06:36:07;97733.69;;;9.84;100.00
13767;BME280;47980;48.794;9.176;2023-11-21T06:38:41;97732.28;;;9.86;100.00
13767;BME280;47980;48.794;9.176;2023-11-21T06:41:13;97732.94;;;9.83;100.00
13767;BME280;47980;48.794;9.176;2023-11-21T06:43:46;97735.81;;;9.91;100.00
13767;BME280;47980;48.794;9.176;2023-11-21T06:46:18;97745.03;;;9.72;100.00
13767;BME280;47980;48.794;9.176;2023-11-21T06:48:50;97754.44;;;9.70;100.00
13767;BME280;47980;48.794;9.176;2023-11-21T06:51:21;97750.28;;;9.81;100.00
13767;BME280;47980;48.794;9.176;2023-11-21T06:53:52;97751.03;;;9.81;100.00
13767;BME280;47980;48.794;9.176;2023-11-21T06:56:24;97755.00;;;9.87;100.00
13767;BME280;47980;48.794;9.176;2023-11-21T06:58:57;97760.75;;;9.89;100.00
13767;BME280;47980;48.794;9.176;2023-11-21T07:01:28;97759.66;;;9.91;100.00
13767;BME280;47980;48.794;9.176;2023-11-21T07:04:00;97762.53;;;9.85;100.00
13767;BME280;47980;48.794;9.176;2023-11-21T07:06:31;97764.72;;;9.83;100.00
13767;BME280;47980;48.794;9.176;2023-11-21T07:09:03;97767.28;;;9.92;100.00
13767;BME280;47980;48.794;9.176;2023-11-21T07:11:35;97767.41;;;9.96;100.00
13767;BME280;47980;48.794;9.176;2023-11-21T07:14:08;97765.06;;;9.94;100.00
13767;BME280;47980;48.794;9.176;2023-11-21T07:16:39;97763.31;;;9.98;100.00
13767;BME280;47980;48.794;9.176;2023-11-21T07:19:11;97774.72;;;9.99;100.00
13767;BME280;47980;48.794;9.176;2023-11-21T07:21:43;97774.81;;;10.02;100.00
13767;BME280;47980;48.794;9.176;2023-11-21T07:24:14;97780.53;;;9.92;100.00
13767;BME280;47980;48.794;9.176;2023-11-21T07:26:46;97787.75;;;10.04;100.00
13767;BME280;47980;48.794;9.176;2023-11-21T07:29:19;97791.94;;;10.05;100.00
13767;BME280;47980;48.794;9.176;2023-11-21T07:31:51;97795.44;;;9.97;100.00
13767;BME280;47980;48.794;9.176;2023-11-21T07:34:22;97798.34;;;10.04;100.00
13767;BME280;47980;48.794;9.176;2023-11-21T07:36:54;97789.50;;;10.00;100.00
13767;BME280;47980;48.794;9.176;2023-11-21T07:39:25;97788.78;;;9.91;100.00
13767;BME280;47980;48.794;9.176;2023-11-21T07:41:57;97797.88;;;10.02;100.00
13767;BME280;47980;48.794;9.176;2023-11-21T07:44:30;97811.84;;;10.23;100.00
13767;BME280;47980;48.794;9.176;2023-11-21T07:47:01;97808.75;;;10.21;100.00
13767;BME280;47980;48.794;9.176;2023-11-21T07:49:34;97805.91;;;10.26;100.00
13767;BME280;47980;48.794;9.176;2023-11-21T07:52:06;97807.81;;;10.38;100.00
13767;BME280;47980;48.794;9.176;2023-11-21T07:54:37;97806.19;;;10.46;100.00
13767;BME280;47980;48.794;9.176;2023-11-21T07:57:09;97804.72;;;10.48;100.00
13767;BME280;47980;48.794;9.176;2023-11-21T07:59:44;97804.94;;;10.55;100.00
13767;BME280;47980;48.794;9.176;2023-11-21T08:02:16;97814.91;;;10.46;100.00
13767;BME280;47980;48.794;9.176;2023-11-21T08:04:48;97818.66;;;10.57;100.00
13767;BME280;47980;48.794;9.176;2023-11-21T08:07:19;97817.09;;;10.44;100.00
13767;BME280;47980;48.794;9.176;2023-11-21T08:09:52;97819.09;;;10.35;100.00
13767;BME280;47980;48.794;9.176;2023-11-21T08:12:24;97822.09;;;10.46;100.00
13767;BME280;47980;48.794;9.176;2023-11-21T08:14:59;97817.56;;;10.46;100.00
13767;BME280;47980;48.794;9.176;2023-11-21T08:17:32;97823.75;;;10.50;100.00
13767;BME280;47980;48.794;9.176;2023-11-21T08:20:05;97819.84;;;10.60;100.00
13767;BME280;47980;48.794;9.176;2023-11-21T08:22:38;97828.94;;;10.71;100.00
13767;BME280;47980;48.794;9.176;2023-11-21T08:25:11;97831.03;;;10.78;99.67
13767;BME280;47980;48.794;9.176;2023-11-21T08:27:42;97833.56;;;10.62;98.45
13767;BME280;47980;48.794;9.176;2023-11-21T08:30:15;97824.94;;;10.77;99.33
13767;BME280;47980;48.794;9.176;2023-11-21T08:32:49;97837.00;;;10.87;99.08
13767;BME280;47980;48.794;9.176;2023-11-21T08:35:21;97834.22;;;10.96;98.34
13767;BME280;47980;48.794;9.176;2023-11-21T08:37:53;97833.78;;;11.06;97.35
13767;BME280;47980;48.794;9.176;2023-11-21T08:40:25;97836.31;;;11.27;95.85
13767;BME280;47980;48.794;9.176;2023-11-21T08:42:56;97840.88;;;11.54;95.34
13767;BME280;47980;48.794;9.176;2023-11-21T08:45:30;97832.38;;;11.49;94.14
13767;BME280;47980;48.794;9.176;2023-11-21T08:48:03;97833.59;;;11.51;93.82
13767;BME280;47980;48.794;9.176;2023-11-21T08:50:35;97840.59;;;11.72;91.95
13767;BME280;47980;48.794;9.176;2023-11-21T08:53:07;97843.03;;;11.77;90.52
13767;BME280;47980;48.794;9.176;2023-11-21T08:55:38;97850.19;;;11.89;90.20
13767;BME280;47980;48.794;9.176;2023-11-21T08:58:10;97850.72;;;11.94;90.22
13767;BME280;47980;48.794;9.176;2023-11-21T09:00:44;97857.75;;;11.74;88.27
13767;BME280;47980;48.794;9.176;2023-11-21T09:03:16;97854.16;;;11.82;90.52
13767;BME280;47980;48.794;9.176;2023-11-21T09:05:47;97856.03;;;11.94;90.15
13767;BME280;47980;48.794;9.176;2023-11-21T09:08:19;97861.97;;;12.03;87.79
13767;BME280;47980;48.794;9.176;2023-11-21T09:10:52;97857.97;;;12.10;86.99
13767;BME280;47980;48.794;9.176;2023-11-21T09:13:24;97866.41;;;12.27;85.98
13767;BME280;47980;48.794;9.176;2023-11-21T09:15:57;97865.09;;;12.06;87.40
13767;BME280;47980;48.794;9.176;2023-11-21T09:18:29;97862.06;;;12.07;89.19
13767;BME280;47980;48.794;9.176;2023-11-21T09:21:02;97867.19;;;12.28;87.51
13767;BME280;47980;48.794;9.176;2023-11-21T09:23:35;97871.84;;;12.03;89.08
13767;BME280;47980;48.794;9.176;2023-11-21T09:26:06;97868.41;;;12.02;86.62
13767;BME280;47980;48.794;9.176;2023-11-21T09:28:38;97876.19;;;11.83;86.77
13767;BME280;47980;48.794;9.176;2023-11-21T09:31:10;97871.66;;;12.24;85.98
13767;BME280;47980;48.794;9.176;2023-11-21T09:33:42;97876.13;;;12.08;85.16
13767;BME280;47980;48.794;9.176;2023-11-21T09:36:14;97880.44;;;11.72;87.89
13767;BME280;47980;48.794;9.176;2023-11-21T09:38:45;97879.19;;;11.94;86.51
13767;BME280;47980;48.794;9.176;2023-11-21T09:41:25;97883.81;;;11.97;85.78
13767;BME280;47980;48.794;9.176;2023-11-21T09:44:08;97881.66;;;11.87;87.01
13767;BME280;47980;48.794;9.176;2023-11-21T09:46:47;97889.19;;;12.13;86.88
13767;BME280;47980;48.794;9.176;2023-11-21T09:49:21;97891.03;;;12.24;86.74
13767;BME280;47980;48.794;9.176;2023-11-21T09:51:55;97882.50;;;12.19;87.35
13767;BME280;47980;48.794;9.176;2023-11-21T09:54:27;97887.53;;;12.08;88.58
13767;BME280;47980;48.794;9.176;2023-11-21T09:57:02;97892.81;;;11.92;86.81
13767;BME280;47980;48.794;9.176;2023-11-21T09:59:36;97897.25;;;12.16;86.44
13767;BME280;47980;48.794;9.176;2023-11-21T10:02:09;97899.19;;;12.32;84.66
13767;BME280;47980;48.794;9.176;2023-11-21T10:04:43;97901.00;;;11.99;87.88
13767;BME280;47980;48.794;9.176;2023-11-21T10:07:17;97895.69;;;11.99;88.13
13767;BME280;47980;48.794;9.176;2023-11-21T10:09:51;97899.06;;;11.84;89.77
13767;BME280;47980;48.794;9.176;2023-11-21T10:12:23;97894.84;;;12.11;88.04
13767;BME280;47980;48.794;9.176;2023-11-21T10:14:58;97896.09;;;12.01;90.50
13767;BME280;47980;48.794;9.176;2023-11-21T10:17:34;97899.03;;;12.12;90.14
13767;BME280;47980;48.794;9.176;2023-11-21T10:20:13;97903.56;;;11.96;89.70
13767;BME280;47980;48.794;9.176;2023-11-21T10:22:45;97902.38;;;11.69;90.09
13767;BME280;47980;48.794;9.176;2023-11-21T10:25:16;97900.94;;;11.71;92.22
13767;BME280;47980;48.794;9.176;2023-11-21T10:27:49;97899.78;;;11.44;91.40
13767;BME280;47980;48.794;9.176;2023-11-21T10:30:22;97905.56;;;11.34;93.37
13767;BME280;47980;48.794;9.176;2023-11-21T10:32:58;97909.22;;;11.29;92.01
13767;BME280;47980;48.794;9.176;2023-11-21T10:35:46;97909.09;;;11.14;93.00
13767;BME280;47980;48.794;9.176;2023-11-21T10:38:21;97915.19;;;11.14;92.46
13767;BME280;47980;48.794;9.176;2023-11-21T10:40:54;97910.75;;;11.18;93.54
13767;BME280;47980;48.794;9.176;2023-11-21T10:43:25;97915.25;;;11.54;92.47
13767;BME280;47980;48.794;9.176;2023-11-21T10:45:58;97918.56;;;11.64;90.57
13767;BME280;47980;48.794;9.176;2023-11-21T10:48:31;97910.13;;;11.74;90.62
13767;BME280;47980;48.794;9.176;2023-11-21T10:51:06;97916.69;;;12.04;89.59
13767;BME280;47980;48.794;9.176;2023-11-21T10:53:39;97915.44;;;12.14;89.11
13767;BME280;47980;48.794;9.176;2023-11-21T10:56:14;97916.03;;;12.08;89.02
13767;BME280;47980;48.794;9.176;2023-11-21T10:58:48;97912.06;;;12.45;86.79
13767;BME280;47980;48.794;9.176;2023-11-21T11:01:21;97918.88;;;12.43;88.89
13767;BME280;47980;48.794;9.176;2023-11-21T11:03:58;97912.47;;;12.75;88.46
13767;BME280;47980;48.794;9.176;2023-11-21T11:06:30;97912.19;;;12.65;85.59
13767;BME280;47980;48.794;9.176;2023-11-21T11:09:03;97915.63;;;12.65;87.24
13767;BME280;47980;48.794;9.176;2023-11-21T11:11:35;97918.28;;;12.81;87.24
13767;BME280;47980;48.794;9.176;2023-11-21T11:14:10;97919.66;;;12.91;83.12
13767;BME280;47980;48.794;9.176;2023-11-21T11:16:42;97912.72;;;13.02;80.42
13767;BME280;47980;48.794;9.176;2023-11-21T11:19:16;97904.66;;;13.49;77.46
13767;BME280;47980;48.794;9.176;2023-11-21T11:21:55;97904.09;;;13.40;78.82
13767;BME280;47980;48.794;9.176;2023-11-21T11:24:56;97911.44;;;12.64;81.46
13767;BME280;47980;48.794;9.176;2023-11-21T11:27:36;97917.03;;;12.31;85.70
13767;BME280;47980;48.794;9.176;2023-11-21T11:30:19;97918.78;;;12.39;85.63
13767;BME280;47980;48.794;9.176;2023-11-21T11:32:58;97911.72;;;12.03;86.91
13767;BME280;47980;48.794;9.176;2023-11-21T11:35:46;97913.81;;;12.53;86.71
13767;BME280;47980;48.794;9.176;2023-11-21T11:38:21;97913.56;;;12.15;88.32
13767;BME280;47980;48.794;9.176;2023-11-21T11:40:53;97911.38;;;12.48;87.33
13767;BME280;47980;48.794;9.176;2023-11-21T11:43:25;97919.06;;;12.66;84.94
13767;BME280;47980;48.794;9.176;2023-11-21T11:45:58;97920.88;;;12.34;85.26
13767;BME280;47980;48.794;9.176;2023-11-21T11:48:35;97922.88;;;12.37;86.16
13767;BME280;47980;48.794;9.176;2023-11-21T11:51:12;97921.03;;;12.69;84.09
13767;BME280;47980;48.794;9.176;2023-11-21T11:53:46;97923.97;;;12.64;83.38
13767;BME280;47980;48.794;9.176;2023-11-21T11:56:28;97923.34;;;13.02;82.81
13767;BME280;47980;48.794;9.176;2023-11-21T11:59:02;97913.06;;;12.69;84.20
13767;BME280;47980;48.794;9.176;2023-11-21T12:01:34;97919.69;;;12.75;82.21
13767;BME280;47980;48.794;9.176;2023-11-21T12:04:24;97923.69;;;12.69;82.63
13767;BME280;47980;48.794;9.176;2023-11-21T12:07:04;97918.19;;;12.46;82.85
13767;BME280;47980;48.794;9.176;2023-11-21T12:09:37;97924.47;;;12.25;84.11
13767;BME280;47980;48.794;9.176;2023-11-21T12:12:08;97924.94;;;12.43;86.36
13767;BME280;47980;48.794;9.176;2023-11-21T12:14:40;97923.13;;;12.32;86.29
13767;BME280;47980;48.794;9.176;2023-11-21T12:17:12;97927.28;;;11.89;91.64
13767;BME280;47980;48.794;9.176;2023-11-21T12:19:44;97930.03;;;11.80;94.46
13767;BME280;47980;48.794;9.176;2023-11-21T12:22:18;97929.22;;;12.04;93.53
13767;BME280;47980;48.794;9.176;2023-11-21T12:24:49;97927.63;;;12.15;91.95
13767;BME280;47980;48.794;9.176;2023-11-21T12:27:21;97928.84;;;12.18;91.34
13767;BME280;47980;48.794;9.176;2023-11-21T12:29:52;97934.47;;;12.16;92.19
13767;BME280;47980;48.794;9.176;2023-11-21T12:32:26;97932.94;;;12.15;90.35
13767;BME280;47980;48.794;9.176;2023-11-21T12:34:57;97929.97;;;12.04;90.12
13767;BME280;47980;48.794;9.176;2023-11-21T12:37:32;97927.22;;;12.01;90.71
13767;BME280;47980;48.794;9.176;2023-11-21T12:40:05;97922.88;;;11.68;95.01
13767;BME280;47980;48.794;9.176;2023-11-21T12:42:39;97933.16;;;11.70;93.08
13767;BME280;47980;48.794;9.176;2023-11-21T12:45:19;97940.59;;;11.76;92.95
13767;BME280;47980;48.794;9.176;2023-11-21T12:47:52;97935.69;;;11.91;92.35
13767;BME280;47980;48.794;9.176;2023-11-21T12:50:26;97943.94;;;12.01;91.59
13767;BME280;47980;48.794;9.176;2023-11-21T12:53:04;97944.41;;;12.03;92.01
13767;BME280;47980;48.794;9.176;2023-11-21T12:55:36;97937.00;;;11.97;91.94
13767;BME280;47980;48.794;9.176;2023-11-21T12:58:09;97939.34;;;11.98;92.42
13767;BME280;47980;48.794;9.176;2023-11-21T13:00:44;97944.69;;;12.14;92.62
13767;BME280;47980;48.794;9.176;2023-11-21T13:03:16;97950.97;;;12.50;88.45
13767;BME280;47980;48.794;9.176;2023-11-21T13:05:49;97944.13;;;12.65;85.73
13767;BME280;47980;48.794;9.176;2023-11-21T13:08:24;97942.06;;;12.58;85.53
13767;BME280;47980;48.794;9.176;2023-11-21T13:10:57;97945.59;;;12.34;87.02
13767;BME280;47980;48.794;9.176;2023-11-21T13:13:29;97945.31;;;12.51;87.85
13767;BME280;47980;48.794;9.176;2023-11-21T13:16:02;97959.88;;;12.14;86.21
13767;BME280;47980;48.794;9.176;2023-11-21T13:18:35;97955.41;;;11.90;86.07
13767;BME280;47980;48.794;9.176;2023-11-21T13:21:08;97959.19;;;11.64;88.08
13767;BME280;47980;48.794;9.176;2023-11-21T13:23:45;97969.38;;;11.25;93.25
13767;BME280;47980;48.794;9.176;2023-11-21T13:26:19;97972.84;;;11.26;95.11